EGTK/OXF METAR and TAF weather

Enter ICAO airport designator
Station Type Date Time Source
EGTK METAR 2021/06/22 19:50 UTC NOAA

EGTK 221950Z VRB02KT CAVOK 14/08 Q1023


Station Type Date Time Source
EGTK Decoded METAR 2021/06/22 19:50 UTC NOAA

Station name not available
Jun 22, 2021 - 03:50 PM EDT / 2021.06.22 1950 UTC
Wind: Variable at 2 MPH (2 KT):0
Visibility: greater than 7 mile(s):0
Temperature: 57 F (14 C)
Dew Point: 46 F (8 C)
Relative Humidity: 67%
Pressure (altimeter): 30.21 in. Hg (1023 hPa)
ob: EGTK 221950Z VRB02KT CAVOK 14/08 Q1023
cycle: 20

Station Type Date Time Source
EGTK TAF UTC NOAA

Error!

Example: see airport list